Time;durP1;ratioP1;P1;durP2;ratioP2;P2;SDS_P1;SDS_P2;PMS_P1;PMS_P2;Temp;Humidity;BMP_temperature;BMP_pressure;BME280_temperature;BME280_humidity;BME280_pressure;Samples;Min_cycle;Max_cycle;Signal;HPM_P1;HPM_P2
2022/03/13 00:01:02;;;;;;;12.77;8.40;;;10.60;83.50;;;;;;5074854;28;20054;-83
2022/03/13 00:03:44;;;;;;;12.68;9.43;;;10.50;83.50;;;;;;5028132;28;20031;-79
2022/03/13 00:06:35;;;;;;;11.85;8.70;;;10.50;83.60;;;;;;5071945;28;20043;-80
2022/03/13 00:09:14;;;;;;;15.98;10.07;;;10.40;83.60;;;;;;5068354;28;20039;-79
2022/03/13 00:11:45;;;;;;;14.95;9.43;;;10.40;83.80;;;;;;5057776;28;20028;-79
2022/03/13 00:14:20;;;;;;;11.40;8.50;;;10.30;83.80;;;;;;5078221;28;20036;-79
2022/03/13 00:17:07;;;;;;;10.38;7.45;;;10.30;83.90;;;;;;5078053;28;20044;-79
2022/03/13 00:19:38;;;;;;;;;;;10.20;84.00;;;;;;5062279;28;20185;-78
2022/03/13 00:22:13;;;;;;;13.40;9.15;;;10.20;84.20;;;;;;5078751;28;19917;-80
2022/03/13 00:24:45;;;;;;;14.95;9.48;;;10.10;84.30;;;;;;5061126;28;20036;-79
2022/03/13 00:27:15;;;;;;;12.80;8.13;;;10.10;84.50;;;;;;5078090;28;20039;-79
2022/03/13 00:29:55;;;;;;;14.00;8.50;;;10.00;84.50;;;;;;5078522;28;20037;-82
2022/03/13 00:32:29;;;;;;;12.98;9.18;;;9.90;84.50;;;;;;5056232;28;20032;-80
2022/03/13 00:34:59;;;;;;;10.93;8.18;;;9.90;84.80;;;;;;5064520;28;20040;-79
2022/03/13 00:37:25;;;;;;;14.77;10.18;;;9.80;84.90;;;;;;5079911;28;20029;-79
2022/03/13 00:39:52;;;;;;;12.80;9.13;;;9.80;85.20;;;;;;5038667;28;20086;-80
2022/03/13 00:42:19;;;;;;;13.93;9.10;;;9.70;85.20;;;;;;5076346;28;20024;-81
2022/03/13 00:44:46;;;;;;;12.27;8.63;;;9.70;85.30;;;;;;5059576;28;20467;-79
2022/03/13 00:47:13;;;;;;;13.98;8.98;;;9.70;85.30;;;;;;5077462;28;20035;-79
2022/03/13 00:49:39;;;;;;;14.27;9.30;;;9.70;85.40;;;;;;5076631;28;20028;-79
2022/03/13 00:52:07;;;;;;;12.10;7.82;;;9.70;85.50;;;;;;5077087;28;20031;-80
2022/03/13 00:54:33;;;;;;;12.63;8.00;;;9.70;85.50;;;;;;5077837;28;20384;-79
2022/03/13 00:57:00;;;;;;;16.10;9.85;;;9.80;85.60;;;;;;5059389;28;20513;-78
2022/03/13 00:59:26;;;;;;;13.18;8.73;;;9.80;85.60;;;;;;5045265;28;20456;-79
2022/03/13 01:01:53;;;;;;;18.67;9.98;;;9.80;85.60;;;;;;5030945;28;20019;-79
2022/03/13 01:04:20;;;;;;;12.25;8.40;;;9.90;85.70;;;;;;5077349;28;20035;-79
2022/03/13 01:06:46;;;;;;;12.35;7.75;;;9.90;85.60;;;;;;5074149;28;20028;-80
2022/03/13 01:09:13;;;;;;;10.60;8.68;;;9.80;85.50;;;;;;5055100;28;20032;-79
2022/03/13 01:11:40;;;;;;;13.98;8.80;;;9.90;85.70;;;;;;5041594;28;20506;-79
2022/03/13 01:14:11;;;;;;;12.80;9.95;;;9.90;85.70;;;;;;5062819;28;20106;-78
2022/03/13 01:16:41;;;;;;;12.77;9.07;;;9.90;85.70;;;;;;5061116;28;20043;-80
2022/03/13 01:19:08;;;;;;;13.85;7.93;;;9.90;85.60;;;;;;5060867;28;20028;-81
2022/03/13 01:21:39;;;;;;;10.40;7.25;;;9.90;85.60;;;;;;5081205;28;20023;-79
2022/03/13 01:24:06;;;;;;;14.63;9.52;;;9.90;85.50;;;;;;5074380;28;20019;-80
2022/03/13 01:26:36;;;;;;;15.18;10.43;;;9.90;85.60;;;;;;5063561;28;20036;-79
2022/03/13 01:29:11;;;;;;;16.00;9.40;;;9.90;85.60;;;;;;5075298;28;20039;-80
2022/03/13 01:31:40;;;;;;;13.43;9.88;;;9.90;85.60;;;;;;5058106;28;20028;-79
2022/03/13 01:34:12;;;;;;;12.65;8.65;;;9.90;85.50;;;;;;5053432;28;20411;-79
2022/03/13 01:36:39;;;;;;;16.00;10.13;;;9.80;85.50;;;;;;5060302;28;20032;-79
2022/03/13 01:39:08;;;;;;;15.48;9.52;;;9.80;85.50;;;;;;5046340;28;20016;-79
2022/03/13 01:41:36;;;;;;;14.52;10.25;;;9.80;85.60;;;;;;5058095;28;20055;-79
2022/03/13 01:44:06;;;;;;;17.13;11.38;;;9.70;85.70;;;;;;5064489;28;20032;-79
2022/03/13 01:46:32;;;;;;;16.30;12.23;;;9.70;85.80;;;;;;5075859;28;20035;-80
2022/03/13 01:49:02;;;;;;;17.00;11.40;;;9.60;86.00;;;;;;5080314;28;20028;-79
2022/03/13 01:51:33;;;;;;;19.80;14.05;;;9.60;86.20;;;;;;5075042;28;20035;-79
2022/03/13 01:54:06;;;;;;;21.17;13.93;;;9.50;86.30;;;;;;5062948;28;20023;-79
2022/03/13 01:56:34;;;;;;;20.58;14.63;;;9.40;86.40;;;;;;5057911;28;20399;-79
2022/03/13 01:59:02;;;;;;;15.68;11.45;;;9.40;86.60;;;;;;5061524;28;21153;-79
2022/03/13 02:01:29;;;;;;;16.00;11.75;;;9.30;86.70;;;;;;5076519;28;20036;-79
2022/03/13 02:03:56;;;;;;;17.85;13.80;;;9.20;86.60;;;;;;5059182;28;20044;-79
2022/03/13 02:06:24;;;;;;;18.58;14.27;;;9.20;87.00;;;;;;5057258;28;20345;-85
2022/03/13 02:08:51;;;;;;;16.33;12.25;;;9.10;87.10;;;;;;5041885;28;20051;-80
2022/03/13 02:11:20;;;;;;;18.33;11.90;;;9.10;87.30;;;;;;5054959;28;20403;-84
2022/03/13 02:13:49;;;;;;;15.93;11.18;;;9.00;87.40;;;;;;5076924;28;20036;-79
2022/03/13 02:16:19;;;;;;;18.48;13.30;;;8.90;87.60;;;;;;5060420;28;21353;-79
2022/03/13 02:18:53;;;;;;;19.08;12.75;;;8.90;87.80;;;;;;5076512;28;20031;-84
2022/03/13 02:21:27;;;;;;;19.77;14.05;;;8.80;87.90;;;;;;5057143;28;20399;-84
2022/03/13 02:24:00;;;;;;;20.13;14.05;;;8.80;88.10;;;;;;5061778;28;20028;-84
2022/03/13 02:26:27;;;;;;;18.98;12.73;;;8.70;88.30;;;;;;5048068;28;20032;-79
2022/03/13 02:28:55;;;;;;;21.88;12.80;;;8.70;88.40;;;;;;5062825;28;20016;-84
2022/03/13 02:31:34;;;;;;;19.45;13.73;;;8.70;88.50;;;;;;5063354;28;22047;-83
2022/03/13 02:34:01;;;;;;;13.82;10.07;;;8.60;88.60;;;;;;5060995;28;20031;-79
2022/03/13 02:36:33;;;;;;;17.42;12.63;;;8.60;88.60;;;;;;5061193;28;20043;-80
2022/03/13 02:38:59;;;;;;;15.75;11.35;;;8.60;88.60;;;;;;5058974;28;20032;-84
2022/03/13 02:41:26;;;;;;;20.10;13.25;;;8.60;88.60;;;;;;5057275;28;20479;-79
2022/03/13 02:43:53;;;;;;;19.30;13.70;;;8.60;88.70;;;;;;5075635;28;20028;-79
2022/03/13 02:46:22;;;;;;;19.80;14.10;;;8.60;88.80;;;;;;5066859;28;20414;-79
2022/03/13 02:48:50;;;;;;;22.13;15.32;;;8.60;89.10;;;;;;5076253;28;20773;-79
2022/03/13 02:51:17;;;;;;;18.52;13.48;;;8.50;89.40;;;;;;5056469;28;20047;-79
2022/03/13 02:53:44;;;;;;;18.98;14.38;;;8.50;89.30;;;;;;5078591;28;20494;-79
2022/03/13 02:56:11;;;;;;;20.30;14.27;;;8.50;89.60;;;;;;5040899;28;20383;-79
2022/03/13 02:58:37;;;;;;;20.70;14.65;;;8.50;89.70;;;;;;5078822;28;20027;-79
2022/03/13 03:01:04;;;;;;;16.98;11.80;;;8.50;89.80;;;;;;5044458;28;20456;-79
2022/03/13 03:03:30;;;;;;;19.45;13.38;;;8.50;90.00;;;;;;5059407;28;20037;-79
2022/03/13 03:05:57;;;;;;;19.02;15.07;;;8.50;89.80;;;;;;5077847;28;20020;-79
2022/03/13 03:08:23;;;;;;;24.17;15.27;;;8.50;90.00;;;;;;5060147;28;20043;-79
2022/03/13 03:10:50;;;;;;;20.73;14.45;;;8.50;90.10;;;;;;5059363;28;20031;-79
2022/03/13 03:13:17;;;;;;;20.00;13.80;;;8.50;90.10;;;;;;5073393;28;20032;-79
2022/03/13 03:15:44;;;;;;;22.00;14.30;;;8.50;90.10;;;;;;5061302;28;20031;-79
2022/03/13 03:18:10;;;;;;;21.70;14.80;;;8.50;90.10;;;;;;5057307;28;20044;-79
2022/03/13 03:20:38;;;;;;;21.13;13.40;;;8.50;90.10;;;;;;5072419;28;20027;-79
2022/03/13 03:23:05;;;;;;;22.58;15.20;;;8.50;90.10;;;;;;5061066;28;20017;-83
2022/03/13 03:25:32;;;;;;;20.02;14.07;;;8.50;90.10;;;;;;5059175;28;20427;-83
2022/03/13 03:27:59;;;;;;;17.98;13.00;;;8.60;90.10;;;;;;5043131;28;20028;-83
2022/03/13 03:30:29;;;;;;;16.70;12.98;;;8.60;90.10;;;;;;5072416;28;20089;-84
2022/03/13 03:33:02;;;;;;;16.65;12.98;;;8.50;90.00;;;;;;5073336;28;20382;-83
2022/03/13 03:35:29;;;;;;;19.25;13.00;;;8.50;90.10;;;;;;5059698;28;20453;-84
2022/03/13 03:37:56;;;;;;;21.20;14.88;;;8.40;90.10;;;;;;5077557;28;20040;-84
2022/03/13 03:40:25;;;;;;;21.05;14.23;;;8.40;90.20;;;;;;5075749;28;20039;-84
2022/03/13 03:42:55;;;;;;;19.85;14.23;;;8.40;90.20;;;;;;5057580;28;20032;-84
2022/03/13 03:45:25;;;;;;;19.85;13.52;;;8.30;90.20;;;;;;5045390;28;20129;-83
2022/03/13 03:47:52;;;;;;;17.02;13.27;;;8.40;90.20;;;;;;5064389;28;20032;-84
2022/03/13 03:50:19;;;;;;;21.30;14.93;;;8.40;90.20;;;;;;5076404;28;20021;-83
2022/03/13 03:52:47;;;;;;;18.65;12.75;;;8.40;90.20;;;;;;5063560;28;20036;-83
2022/03/13 03:55:14;;;;;;;17.33;12.68;;;8.40;90.10;;;;;;5082101;28;20016;-83
2022/03/13 03:57:41;;;;;;;20.75;13.80;;;8.40;90.10;;;;;;5068467;28;20616;-84
2022/03/13 04:00:09;;;;;;;18.67;13.43;;;8.40;90.10;;;;;;5077465;28;20475;-79
2022/03/13 04:02:43;;;;;;;22.75;14.30;;;8.40;90.10;;;;;;5072087;27;20047;-79
2022/03/13 04:05:10;;;;;;;23.80;12.93;;;8.50;90.00;;;;;;5064675;27;20046;-79
2022/03/13 04:07:40;;;;;;;19.77;13.55;;;8.50;89.90;;;;;;5101614;27;20023;-79
2022/03/13 04:10:08;;;;;;;20.23;14.98;;;8.60;89.70;;;;;;5082495;28;20034;-79
2022/03/13 04:12:38;;;;;;;20.05;13.77;;;8.60;89.50;;;;;;5100051;27;23150;-78
2022/03/13 04:15:06;;;;;;;19.40;14.18;;;8.60;89.30;;;;;;5082295;28;20024;-78
2022/03/13 04:17:32;;;;;;;19.15;12.43;;;8.60;89.10;;;;;;5085570;27;20038;-78
2022/03/13 04:19:59;;;;;;;24.02;12.88;;;8.70;88.80;;;;;;5096560;27;20410;-79
2022/03/13 04:22:27;;;;;;;17.85;12.95;;;8.70;88.60;;;;;;5083372;28;20035;-79
2022/03/13 04:24:54;;;;;;;19.05;13.82;;;8.70;88.20;;;;;;5081449;28;20035;-78
2022/03/13 04:27:21;;;;;;;18.33;11.77;;;8.70;88.00;;;;;;5067418;28;20070;-78
2022/03/13 04:29:48;;;;;;;19.80;13.55;;;8.70;87.80;;;;;;5099738;27;20375;-79
2022/03/13 04:32:23;;;;;;;17.92;12.02;;;8.70;87.60;;;;;;5065238;28;20489;-79
2022/03/13 04:34:49;;;;;;;17.67;12.27;;;8.70;87.10;;;;;;5062467;28;20035;-78
2022/03/13 04:37:18;;;;;;;18.85;12.25;;;8.80;86.90;;;;;;5068168;27;20047;-79
2022/03/13 04:39:47;;;;;;;16.45;11.77;;;8.80;86.60;;;;;;5097312;27;20023;-78
2022/03/13 04:42:15;;;;;;;15.93;11.50;;;8.80;85.80;;;;;;5051680;28;20044;-79
2022/03/13 04:44:42;;;;;;;20.20;12.65;;;8.80;85.60;;;;;;5050448;27;20036;-79
2022/03/13 04:47:08;;;;;;;17.55;12.02;;;8.80;85.40;;;;;;5085146;28;20385;-79
2022/03/13 04:49:35;;;;;;;17.90;11.90;;;8.80;85.00;;;;;;5065844;28;20034;-79
2022/03/13 04:52:02;;;;;;;16.23;11.18;;;8.80;84.80;;;;;;5065698;28;20035;-79
2022/03/13 04:54:31;;;;;;;15.13;11.40;;;8.80;84.80;;;;;;5080001;28;20375;-79
2022/03/13 04:56:57;;;;;;;14.93;10.73;;;8.70;83.90;;;;;;5082118;28;20035;-80
2022/03/13 04:59:24;;;;;;;23.42;12.95;;;8.70;84.10;;;;;;5081813;27;20043;-79
2022/03/13 05:01:52;;;;;;;18.08;12.25;;;8.80;83.70;;;;;;5061109;27;20030;-80
2022/03/13 05:04:18;;;;;;;16.98;10.32;;;8.70;83.40;;;;;;5067375;28;20050;-80
2022/03/13 05:06:45;;;;;;;16.02;11.07;;;8.70;83.40;;;;;;5084048;27;20038;-80
2022/03/13 05:09:11;;;;;;;15.48;10.70;;;8.70;83.40;;;;;;5048700;28;20039;-81
2022/03/13 05:11:41;;;;;;;17.63;12.55;;;8.70;83.20;;;;;;5077352;28;20020;-80
2022/03/13 05:14:08;;;;;;;17.55;12.23;;;8.70;82.80;;;;;;5063452;27;20493;-79
2022/03/13 05:16:34;;;;;;;15.40;10.82;;;8.70;82.40;;;;;;5066198;28;20039;-80
2022/03/13 05:19:02;;;;;;;15.00;10.70;;;8.60;82.10;;;;;;5061912;28;20482;-80
2022/03/13 05:21:29;;;;;;;18.27;10.70;;;8.60;81.90;;;;;;5081809;28;20498;-80
2022/03/13 05:23:56;;;;;;;16.27;11.45;;;8.60;81.90;;;;;;5082207;27;20051;-80
2022/03/13 05:26:23;;;;;;;16.23;10.35;;;8.60;81.30;;;;;;5082347;28;20047;-80
2022/03/13 05:28:50;;;;;;;13.77;9.80;;;8.60;81.10;;;;;;5096401;27;20036;-80
2022/03/13 05:31:16;;;;;;;16.25;9.73;;;8.50;81.10;;;;;;5077389;27;20505;-80
2022/03/13 05:33:43;;;;;;;15.50;10.95;;;8.60;81.10;;;;;;5049766;28;23304;-80
2022/03/13 05:36:11;;;;;;;13.25;9.52;;;8.50;80.50;;;;;;5080140;28;20028;-84
2022/03/13 05:38:38;;;;;;;20.85;11.95;;;8.50;80.50;;;;;;5081180;28;20027;-80
2022/03/13 05:41:06;;;;;;;15.73;10.85;;;8.50;80.10;;;;;;5046642;28;20035;-85
2022/03/13 05:43:33;;;;;;;17.70;10.27;;;8.50;79.50;;;;;;5039568;28;20028;-84
2022/03/13 05:45:59;;;;;;;18.20;11.77;;;8.50;79.20;;;;;;5063815;28;20040;-84
2022/03/13 05:48:26;;;;;;;12.77;9.13;;;8.50;78.50;;;;;;5077671;27;20043;-85
2022/03/13 05:50:53;;;;;;;13.88;9.95;;;8.60;78.70;;;;;;5033402;27;20043;-84
2022/03/13 05:53:20;;;;;;;12.70;9.82;;;8.60;78.30;;;;;;5061785;27;20038;-85
2022/03/13 05:55:46;;;;;;;13.15;8.45;;;8.60;77.60;;;;;;5079619;27;20410;-80
2022/03/13 05:58:14;;;;;;;14.05;10.00;;;8.60;77.70;;;;;;5061159;28;20040;-80
2022/03/13 06:00:41;;;;;;;15.55;10.07;;;8.60;77.40;;;;;;5065738;28;20027;-80
2022/03/13 06:03:08;;;;;;;14.95;8.30;;;8.60;76.50;;;;;;5080058;27;20040;-85
2022/03/13 06:05:37;;;;;;;12.48;9.13;;;8.60;76.70;;;;;;5048407;28;20028;-80
2022/03/13 06:08:07;;;;;;;14.77;9.35;;;8.60;76.50;;;;;;5047503;28;20483;-80
2022/03/13 06:10:33;;;;;;;12.55;8.73;;;8.60;76.50;;;;;;5046061;27;20035;-80
2022/03/13 06:13:00;;;;;;;19.02;9.98;;;8.60;76.40;;;;;;5047058;27;20032;-80
2022/03/13 06:15:28;;;;;;;11.13;8.23;;;8.60;75.60;;;;;;5059573;28;20030;-80
2022/03/13 06:17:57;;;;;;;12.23;8.65;;;8.70;75.60;;;;;;5050185;28;20051;-80
2022/03/13 06:20:23;;;;;;;10.95;7.88;;;8.70;75.50;;;;;;5079812;28;20042;-80
2022/03/13 06:22:50;;;;;;;13.13;8.38;;;8.70;75.50;;;;;;5060285;27;20023;-80
2022/03/13 06:25:17;;;;;;;12.65;8.30;;;8.80;75.60;;;;;;5049279;28;20349;-80
2022/03/13 06:27:44;;;;;;;13.57;8.60;;;8.80;75.30;;;;;;5076687;28;20036;-80
2022/03/13 06:30:14;;;;;;;12.70;9.00;;;8.80;74.90;;;;;;5096561;27;20028;-80
2022/03/13 06:32:45;;;;;;;13.35;8.43;;;8.80;74.60;;;;;;5064655;28;20463;-80
2022/03/13 06:35:13;;;;;;;14.38;9.07;;;8.80;74.20;;;;;;5062815;28;20020;-80
2022/03/13 06:37:41;;;;;;;12.07;8.13;;;8.70;74.00;;;;;;5059919;28;20031;-80
2022/03/13 06:40:09;;;;;;;12.10;8.82;;;8.70;74.20;;;;;;5061415;28;20015;-80
2022/03/13 06:42:36;;;;;;;12.88;8.82;;;8.70;74.10;;;;;;5042890;28;20035;-80
2022/03/13 06:45:03;;;;;;;11.95;8.75;;;8.70;74.00;;;;;;5063178;28;20020;-80
2022/03/13 06:47:30;;;;;;;12.23;9.60;;;8.70;73.70;;;;;;5075363;28;20035;-84
2022/03/13 06:49:57;;;;;;;14.98;8.68;;;8.70;73.80;;;;;;5064443;27;20024;-80
2022/03/13 06:52:23;;;;;;;14.63;8.70;;;8.80;73.60;;;;;;5069909;28;20030;-84
2022/03/13 06:54:50;;;;;;;15.05;8.90;;;8.80;73.50;;;;;;5049647;28;20028;-80
2022/03/13 06:57:18;;;;;;;12.82;9.23;;;8.80;73.50;;;;;;5049779;28;20034;-85
2022/03/13 06:59:46;;;;;;;12.88;8.68;;;8.90;72.80;;;;;;5058772;28;20036;-79
2022/03/13 07:02:13;;;;;;;12.77;8.77;;;8.90;72.70;;;;;;5051982;28;20039;-83
2022/03/13 07:04:40;;;;;;;15.60;9.30;;;8.90;72.70;;;;;;5061220;28;20398;-84
2022/03/13 07:07:10;;;;;;;10.73;7.72;;;8.90;72.60;;;;;;5061979;28;20024;-84
2022/03/13 07:09:37;;;;;;;14.93;9.90;;;8.90;72.40;;;;;;5100356;28;20024;-84
2022/03/13 07:12:05;;;;;;;15.60;10.13;;;9.00;71.60;;;;;;5047398;28;20027;-84
2022/03/13 07:14:33;;;;;;;13.82;8.25;;;9.00;71.20;;;;;;5084400;28;20028;-81
2022/03/13 07:16:59;;;;;;;15.90;8.85;;;9.00;71.30;;;;;;5050432;28;20035;-80
2022/03/13 07:19:26;;;;;;;13.50;8.23;;;9.00;71.30;;;;;;5062166;28;20058;-76
2022/03/13 07:21:54;;;;;;;15.15;9.43;;;9.00;71.40;;;;;;5065139;27;20020;-80
2022/03/13 07:24:21;;;;;;;14.40;8.88;;;9.00;71.10;;;;;;5064798;28;20035;-81
2022/03/13 07:26:47;;;;;;;12.43;7.85;;;8.90;70.70;;;;;;5051550;27;20062;-83
2022/03/13 07:29:14;;;;;;;12.77;7.85;;;9.00;70.90;;;;;;5049119;27;20031;-85
2022/03/13 07:31:41;;;;;;;13.48;8.65;;;9.00;71.20;;;;;;5043481;27;20035;-84
2022/03/13 07:34:11;;;;;;;11.73;8.50;;;9.00;70.80;;;;;;5081743;28;20020;-85
2022/03/13 07:36:42;;;;;;;16.38;8.88;;;9.10;70.60;;;;;;5083912;28;20038;-81
2022/03/13 07:39:10;;;;;;;14.80;10.15;;;9.10;70.60;;;;;;5054030;28;20054;-81
2022/03/13 07:41:40;;;;;;;15.13;10.00;;;9.20;70.20;;;;;;5064943;27;20395;-85
2022/03/13 07:44:10;;;;;;;14.38;9.05;;;9.20;69.40;;;;;;5071479;27;20023;-85
2022/03/13 07:46:48;;;;;;;14.85;8.80;;;9.30;69.40;;;;;;5080704;27;20036;-84
2022/03/13 07:49:18;;;;;;;16.27;8.70;;;9.30;69.10;;;;;;5067536;27;20047;-85
2022/03/13 07:51:46;;;;;;;16.52;9.40;;;9.40;68.40;;;;;;5081832;27;20039;-85
2022/03/13 07:54:34;;;;;;;17.60;9.48;;;9.40;68.00;;;;;;5084724;28;20085;-82
2022/03/13 07:57:03;;;;;;;13.50;8.95;;;9.40;68.00;;;;;;5053747;28;20026;-85
2022/03/13 07:59:30;;;;;;;14.73;9.55;;;9.40;67.90;;;;;;5099761;27;20031;-82
2022/03/13 08:02:07;;;;;;;12.57;8.98;;;9.50;67.50;;;;;;5085734;27;20020;-82
2022/03/13 08:04:38;;;;;;;16.77;9.65;;;9.50;66.80;;;;;;5040741;28;20048;-82
2022/03/13 08:07:09;;;;;;;13.82;9.68;;;9.50;66.30;;;;;;5048762;28;20036;-86
2022/03/13 08:09:35;;;;;;;13.38;9.48;;;9.60;66.20;;;;;;5061151;28;20037;-82
2022/03/13 08:12:03;;;;;;;12.65;8.57;;;9.70;66.00;;;;;;5046850;28;20024;-85
2022/03/13 08:14:30;;;;;;;12.63;8.05;;;9.80;66.40;;;;;;5058934;28;20021;-82
2022/03/13 08:16:57;;;;;;;12.23;8.50;;;9.80;66.30;;;;;;5064440;28;20055;-86
2022/03/13 08:19:25;;;;;;;13.48;9.93;;;10.00;66.00;;;;;;5053789;28;20039;-86
2022/03/13 08:21:55;;;;;;;15.38;10.27;;;10.00;65.50;;;;;;5058165;28;20043;-85
2022/03/13 08:24:28;;;;;;;14.43;9.05;;;10.10;64.60;;;;;;5027676;28;20029;-85
2022/03/13 08:26:58;;;;;;;11.88;8.07;;;10.10;64.40;;;;;;5035550;28;20029;-85
2022/03/13 08:29:30;;;;;;;13.73;8.93;;;10.10;64.60;;;;;;5068308;28;20396;-82
2022/03/13 08:31:59;;;;;;;13.63;9.50;;;10.10;64.30;;;;;;5055724;28;20033;-81
2022/03/13 08:34:38;;;;;;;17.27;10.48;;;10.10;64.50;;;;;;5057158;28;20036;-85
2022/03/13 08:37:13;;;;;;;15.25;8.90;;;10.10;64.30;;;;;;5045640;28;20044;-82
2022/03/13 08:39:39;;;;;;;12.02;7.40;;;10.10;64.40;;;;;;5057813;28;20033;-85
2022/03/13 08:42:08;;;;;;;13.00;8.73;;;10.10;64.80;;;;;;5029088;28;20028;-81
2022/03/13 08:44:38;;;;;;;16.35;9.30;;;10.20;64.70;;;;;;5047763;28;20028;-81
2022/03/13 08:47:05;;;;;;;13.05;9.88;;;10.20;64.50;;;;;;5013066;28;20063;-85
2022/03/13 08:49:32;;;;;;;14.98;9.75;;;10.30;64.80;;;;;;5059910;28;20684;-85
2022/03/13 08:51:59;;;;;;;13.55;9.57;;;10.30;64.50;;;;;;5028918;28;20043;-81
2022/03/13 08:54:26;;;;;;;18.13;9.77;;;10.40;63.90;;;;;;5039345;28;20043;-81
2022/03/13 08:56:52;;;;;;;14.52;9.98;;;10.40;63.40;;;;;;5029538;28;20028;-81
2022/03/13 08:59:20;;;;;;;13.00;9.35;;;10.30;63.20;;;;;;5061613;28;20036;-85
2022/03/13 09:01:48;;;;;;;13.27;9.20;;;10.30;63.60;;;;;;5028108;28;20024;-82
2022/03/13 09:04:15;;;;;;;12.48;9.23;;;10.30;63.60;;;;;;5068812;28;20405;-81
2022/03/13 09:06:46;;;;;;;16.27;9.60;;;10.30;63.70;;;;;;5072450;28;20582;-85
2022/03/13 09:09:13;;;;;;;13.60;9.13;;;10.30;64.10;;;;;;5070423;28;20039;-81
2022/03/13 09:11:39;;;;;;;12.65;8.70;;;10.40;63.90;;;;;;5067154;28;20030;-81
2022/03/13 09:14:09;;;;;;;17.45;9.90;;;10.40;64.10;;;;;;5087202;28;20032;-80
2022/03/13 09:16:38;;;;;;;15.43;9.25;;;10.50;64.10;;;;;;5088356;28;20032;-80
2022/03/13 09:19:05;;;;;;;18.27;10.35;;;10.60;64.10;;;;;;5054709;28;20032;-85
2022/03/13 09:21:34;;;;;;;12.10;8.20;;;10.70;64.00;;;;;;5070561;28;20024;-84
2022/03/13 09:24:03;;;;;;;13.25;8.75;;;10.80;64.10;;;;;;5069194;28;20036;-85
2022/03/13 09:26:30;;;;;;;16.70;9.80;;;10.90;64.00;;;;;;5090639;28;20024;-85
2022/03/13 09:28:57;;;;;;;16.75;9.27;;;11.00;64.00;;;;;;5041711;28;20040;-80
2022/03/13 09:31:26;;;;;;;14.93;10.65;;;11.10;63.90;;;;;;5074803;28;20043;-82
2022/03/13 09:33:53;;;;;;;14.95;10.25;;;11.20;63.20;;;;;;5047936;28;20123;-82
2022/03/13 09:36:20;;;;;;;14.98;9.80;;;11.30;63.50;;;;;;5065105;28;20061;-79
2022/03/13 09:38:47;;;;;;;15.25;10.98;;;11.40;62.90;;;;;;5047777;28;20052;-84
2022/03/13 09:41:14;;;;;;;13.57;9.35;;;11.50;63.60;;;;;;5082412;28;20028;-81
2022/03/13 09:43:40;;;;;;;11.60;8.65;;;11.70;62.80;;;;;;5071423;28;20078;-81
2022/03/13 09:46:07;;;;;;;15.20;10.48;;;11.80;63.00;;;;;;5052704;28;20024;-81
2022/03/13 09:48:37;;;;;;;16.88;11.23;;;12.00;62.30;;;;;;5085539;28;20054;-81
2022/03/13 09:51:06;;;;;;;17.13;11.13;;;12.20;61.70;;;;;;5084205;28;20028;-81
2022/03/13 09:53:34;;;;;;;15.88;10.02;;;12.30;61.30;;;;;;5084936;28;20036;-79
2022/03/13 09:56:03;;;;;;;17.58;11.13;;;12.40;61.10;;;;;;5083181;28;20032;-77
2022/03/13 09:58:31;;;;;;;15.25;9.50;;;12.50;61.00;;;;;;5077338;28;20028;-76
2022/03/13 10:00:59;;;;;;;16.52;10.32;;;12.60;60.90;;;;;;5072218;28;20036;-76
2022/03/13 10:03:25;;;;;;;14.93;10.65;;;12.60;60.50;;;;;;5059996;28;20035;-76
2022/03/13 10:05:55;;;;;;;13.40;10.05;;;12.70;60.90;;;;;;5079153;28;20328;-76
2022/03/13 10:08:28;;;;;;;14.13;9.90;;;12.80;60.30;;;;;;5045156;28;20028;-76
2022/03/13 10:10:56;;;;;;;16.08;11.07;;;12.90;60.90;;;;;;5045240;28;20028;-76
2022/03/13 10:13:38;;;;;;;17.75;11.50;;;13.00;61.00;;;;;;5075191;28;20367;-76
2022/03/13 10:16:14;;;;;;;15.18;11.18;;;13.20;60.50;;;;;;5073739;28;20044;-76
2022/03/13 10:18:41;;;;;;;18.63;10.93;;;13.40;59.50;;;;;;5078416;28;20475;-77
2022/03/13 10:21:09;;;;;;;15.85;11.50;;;13.50;59.90;;;;;;5080076;28;20036;-83
2022/03/13 10:23:36;;;;;;;19.75;11.35;;;13.60;59.90;;;;;;5087968;28;20035;-85
2022/03/13 10:26:07;;;;;;;15.52;10.75;;;13.70;59.80;;;;;;5087078;28;20051;-82
2022/03/13 10:28:40;;;;;;;16.63;11.43;;;13.80;60.00;;;;;;5087270;28;20043;-82
2022/03/13 10:31:17;;;;;;;17.98;11.63;;;13.80;59.40;;;;;;5061138;28;20028;-76
2022/03/13 10:33:55;;;;;;;17.77;10.95;;;13.80;59.20;;;;;;5076674;28;20032;-78
2022/03/13 10:36:34;;;;;;;15.27;11.10;;;13.70;59.80;;;;;;5056852;28;20515;-77
2022/03/13 10:39:03;;;;;;;16.25;10.73;;;13.70;60.10;;;;;;5059417;28;20032;-78
2022/03/13 10:41:44;;;;;;;17.05;11.48;;;13.90;60.60;;;;;;5046918;28;20036;-79
2022/03/13 10:44:16;;;;;;;18.00;10.93;;;14.20;60.70;;;;;;5076839;28;20032;-79
2022/03/13 10:47:05;;;;;;;17.55;9.95;;;14.70;60.60;;;;;;5060306;28;20426;-78
2022/03/13 10:49:40;;;;;;;16.08;11.25;;;15.10;60.20;;;;;;5073227;28;20181;-79
2022/03/13 10:52:31;;;;;;;16.95;11.32;;;15.50;59.70;;;;;;5061239;28;20028;-78
2022/03/13 10:55:19;;;;;;;16.80;11.93;;;15.90;59.20;;;;;;5063255;28;20036;-79
2022/03/13 10:57:56;;;;;;;15.77;11.75;;;16.30;58.30;;;;;;5078641;28;20347;-79
2022/03/13 11:00:27;;;;;;;15.82;11.73;;;16.50;57.60;;;;;;5082011;28;20039;-81
2022/03/13 11:03:12;;;;;;;20.52;13.27;;;16.70;57.50;;;;;;5079077;28;20032;-83
2022/03/13 11:05:40;;;;;;;15.20;11.13;;;16.70;56.60;;;;;;5080257;28;20924;-85
2022/03/13 11:08:08;;;;;;;15.40;11.85;;;16.70;57.20;;;;;;5081071;28;20031;-83
2022/03/13 11:10:38;;;;;;;14.68;12.05;;;16.80;57.60;;;;;;5061426;28;20043;-83
2022/03/13 11:13:06;;;;;;;15.77;11.60;;;17.00;57.50;;;;;;5046188;28;20031;-81
2022/03/13 11:15:35;;;;;;;17.70;12.50;;;17.20;57.40;;;;;;5101725;28;20040;-83
2022/03/13 11:18:09;;;;;;;17.73;12.63;;;17.40;56.80;;;;;;5068623;28;20399;-81
2022/03/13 11:20:38;;;;;;;14.77;11.55;;;17.60;55.60;;;;;;5046992;28;20035;-82
2022/03/13 11:23:12;;;;;;;16.52;12.00;;;17.80;56.00;;;;;;5073879;28;20051;-84
2022/03/13 11:25:39;;;;;;;13.00;10.55;;;18.00;54.80;;;;;;5086857;28;20114;-85
2022/03/13 11:28:07;;;;;;;15.25;11.93;;;18.20;55.90;;;;;;5070059;28;20047;-82
2022/03/13 11:30:37;;;;;;;13.30;11.05;;;18.50;54.30;;;;;;5095880;28;20039;-79
2022/03/13 11:33:04;;;;;;;12.43;10.30;;;18.70;54.40;;;;;;5099115;28;20031;-79
2022/03/13 11:35:31;;;;;;;15.35;11.48;;;19.10;54.40;;;;;;5065943;28;20032;-79
2022/03/13 11:38:01;;;;;;;13.73;11.20;;;19.40;53.90;;;;;;5074444;28;20043;-78
2022/03/13 11:40:36;;;;;;;14.57;11.05;;;19.60;52.80;;;;;;5090941;28;20030;-78
2022/03/13 11:43:11;;;;;;;14.40;11.73;;;19.80;52.80;;;;;;5062168;28;20027;-79
2022/03/13 11:45:39;;;;;;;12.70;11.10;;;20.00;51.40;;;;;;5098241;28;20043;-79
2022/03/13 11:48:18;;;;;;;14.27;11.60;;;20.00;50.80;;;;;;5096990;28;20016;-79
2022/03/13 11:51:00;;;;;;;14.85;10.65;;;20.00;50.80;;;;;;5056672;28;20020;-78
2022/03/13 11:53:28;;;;;;;15.13;11.88;;;20.20;51.20;;;;;;5077543;28;20356;-79
2022/03/13 11:55:57;;;;;;;13.27;11.55;;;20.40;50.70;;;;;;5077626;28;20064;-79
2022/03/13 11:58:41;;;;;;;15.40;10.38;;;20.70;50.30;;;;;;5099954;28;20054;-82
2022/03/13 12:01:11;;;;;;;12.93;11.07;;;21.10;50.20;;;;;;5097503;28;20046;-78
2022/03/13 12:03:59;;;;;;;12.07;10.75;;;21.20;49.00;;;;;;5096478;28;20055;-78
2022/03/13 12:06:41;;;;;;;12.15;10.57;;;21.40;48.70;;;;;;5049946;28;20482;-79
2022/03/13 12:09:17;;;;;;;12.93;11.35;;;21.50;48.60;;;;;;5103701;27;20039;-81
2022/03/13 12:11:47;;;;;;;12.93;10.43;;;21.70;47.90;;;;;;5081688;28;20035;-79
2022/03/13 12:14:15;;;;;;;12.40;11.10;;;21.90;48.20;;;;;;5079551;28;20027;-79
2022/03/13 12:16:43;;;;;;;12.48;11.18;;;22.20;47.90;;;;;;5067176;28;20027;-79
2022/03/13 12:19:11;;;;;;;13.77;11.18;;;22.50;47.40;;;;;;5054175;28;22770;-79
2022/03/13 12:21:42;;;;;;;12.32;10.43;;;22.60;47.10;;;;;;5099473;27;20016;-80
2022/03/13 12:24:15;;;;;;;11.70;9.73;;;23.00;47.60;;;;;;5063596;27;20789;-79
2022/03/13 12:26:47;;;;;;;10.45;8.98;;;23.40;47.30;;;;;;5085226;28;20494;-81
2022/03/13 12:29:18;;;;;;;8.82;7.95;;;23.90;46.60;;;;;;5066430;28;20071;-82
2022/03/13 12:31:49;;;;;;;10.60;8.45;;;24.30;46.40;;;;;;5086019;28;20036;-81
2022/03/13 12:34:26;;;;;;;9.70;8.70;;;24.80;45.10;;;;;;5096522;28;20032;-79
2022/03/13 12:36:53;;;;;;;10.55;9.35;;;24.80;43.50;;;;;;5103141;27;20465;-82
2022/03/13 12:39:20;;;;;;;9.68;8.18;;;24.70;43.10;;;;;;5069489;27;20028;-84
2022/03/13 12:41:59;;;;;;;9.55;8.20;;;24.70;43.30;;;;;;5083011;28;20455;-78
2022/03/13 12:44:27;;;;;;;8.68;7.72;;;24.70;43.80;;;;;;5102263;27;20028;-82
2022/03/13 12:46:54;;;;;;;8.48;7.22;;;25.10;43.50;;;;;;5071640;27;20019;-83
2022/03/13 12:49:32;;;;;;;8.73;7.93;;;25.40;43.90;;;;;;5089404;27;20032;-81